Glasgow, Missouri
Current Conditions -  °F | °C
As of 3:15 AM on Monday 24 Nov 2014 (Local Time) from KMHL Reporting Station
Overcast Overcast  
Wind Chill: 35°   Ceiling: 2600
Heat Index: 43°   Visibility: 10mi
Dew Point: 37°   Wind: 18mph
Humidity: 81%   Direction: 280°W
Pressure: 29.47"   Gusts: 25mph
Location:  39.23°N, 92.85°W
Report Text: KMHL 240915Z AUTO 28016G22KT 10SM OVC026 06/03 A2947 RMK AO2
Loading
Personal Weather Stations






























Interactive Weather Map New forecast layout! Learn more

10-Day Weather Forecast

Advertisements
Track Severe Weather on mobile